Time;durP1;ratioP1;P1;durP2;ratioP2;P2;SDS_P1;SDS_P2;PMS_P1;PMS_P2;Temp;Humidity;BMP_temperature;BMP_pressure;BME280_temperature;BME280_humidity;BME280_pressure;Samples;Min_cycle;Max_cycle;Signal;HPM_P1;HPM_P2
2022/09/09 00:00:41;;;;;;;6.78;1.80;;;;;;;;;;5058461;28;20127;-54
2022/09/09 00:03:12;;;;;;;2.97;1.20;;;;;;;;;;5060796;28;20056;-53
2022/09/09 00:05:42;;;;;;;5.70;1.23;;;;;;;;;;5055953;28;20053;-52
2022/09/09 00:08:10;;;;;;;4.72;1.38;;;;;;;;;;5055517;28;20095;-50
2022/09/09 00:10:39;;;;;;;4.30;1.13;;;;;;;;;;5060759;28;20053;-52
2022/09/09 00:13:09;;;;;;;2.70;1.05;;;;;;;;;;5074863;28;20075;-50
2022/09/09 00:15:39;;;;;;;5.38;1.00;;;;;;;;;;5075406;28;20785;-53
2022/09/09 00:18:14;;;;;;;5.00;1.40;;;;;;;;;;5074609;28;20053;-53
2022/09/09 00:20:45;;;;;;;1.83;1.00;;;;;;;;;;5075276;28;20412;-50
2022/09/09 00:23:13;;;;;;;2.13;1.02;;;;;;;;;;5075722;28;20084;-53
2022/09/09 00:25:44;;;;;;;2.80;1.20;;;;;;;;;;5063956;28;20060;-54
2022/09/09 00:28:14;;;;;;;3.97;0.82;;;;;;;;;;5055580;28;20110;-51
2022/09/09 00:30:42;;;;;;;2.55;1.20;;;;;;;;;;5055665;28;20065;-53
2022/09/09 00:33:11;;;;;;;4.05;1.40;;;;;;;;;;5062508;28;20464;-52
2022/09/09 00:35:39;;;;;;;5.40;1.40;;;;;;;;;;5075072;28;20436;-54
2022/09/09 00:38:15;;;;;;;4.05;1.30;;;;;;;;;;5075151;28;20139;-53
2022/09/09 00:40:46;;;;;;;8.80;1.40;;;;;;;;;;5075158;28;20060;-52
2022/09/09 00:43:20;;;;;;;3.42;1.23;;;;;;;;;;5074920;28;20048;-51
2022/09/09 00:46:08;;;;;;;3.40;1.45;;;;;;;;;;5075418;28;20080;-52
2022/09/09 00:48:43;;;;;;;2.67;1.15;;;;;;;;;;5069507;28;20052;-54
2022/09/09 00:51:13;;;;;;;1.95;0.90;;;;;;;;;;5075084;28;20110;-54
2022/09/09 00:53:43;;;;;;;3.88;1.20;;;;;;;;;;5070260;28;20405;-50
2022/09/09 00:56:13;;;;;;;4.53;1.20;;;;;;;;;;5054228;28;20041;-53
2022/09/09 00:58:40;;;;;;;5.35;1.83;;;;;;;;;;5054826;28;20130;-50
2022/09/09 01:01:09;;;;;;;4.57;1.20;;;;;;;;;;5055090;28;20052;-51
2022/09/09 01:03:38;;;;;;;3.10;1.10;;;;;;;;;;5054894;28;20048;-51
2022/09/09 01:06:13;;;;;;;3.53;1.33;;;;;;;;;;5054624;28;20358;-52
2022/09/09 01:08:57;;;;;;;2.58;1.10;;;;;;;;;;5054741;28;20057;-51
2022/09/09 01:11:25;;;;;;;3.70;1.20;;;;;;;;;;5054571;28;20060;-54
2022/09/09 01:13:54;;;;;;;3.72;1.35;;;;;;;;;;5054446;28;20071;-50
2022/09/09 01:16:21;;;;;;;1.77;1.48;;;;;;;;;;5054625;28;20041;-50
2022/09/09 01:18:50;;;;;;;3.20;1.30;;;;;;;;;;5054411;28;20056;-53
2022/09/09 01:21:20;;;;;;;2.45;1.10;;;;;;;;;;5054560;28;20136;-50
2022/09/09 01:23:52;;;;;;;5.10;1.30;;;;;;;;;;5054236;28;20488;-51
2022/09/09 01:26:31;;;;;;;4.38;1.33;;;;;;;;;;5054426;28;20060;-53
2022/09/09 01:28:57;;;;;;;5.50;1.30;;;;;;;;;;5054355;28;20053;-54
2022/09/09 01:31:27;;;;;;;2.33;1.23;;;;;;;;;;5054339;28;20057;-53
2022/09/09 01:33:53;;;;;;;3.58;1.20;;;;;;;;;;5067407;28;20099;-51
2022/09/09 01:36:22;;;;;;;4.57;1.40;;;;;;;;;;5074109;28;20052;-53
2022/09/09 01:38:48;;;;;;;3.80;1.52;;;;;;;;;;5074164;28;20057;-51
2022/09/09 01:41:15;;;;;;;24.08;3.15;;;;;;;;;;5073944;28;20073;-51
2022/09/09 01:43:42;;;;;;;3.97;1.10;;;;;;;;;;5074067;28;20362;-51
2022/09/09 01:46:08;;;;;;;1.95;0.95;;;;;;;;;;5064571;28;20049;-50
2022/09/09 01:48:35;;;;;;;2.83;1.25;;;;;;;;;;5053768;28;20060;-50
2022/09/09 01:51:01;;;;;;;2.08;1.30;;;;;;;;;;5053772;28;20053;-51
2022/09/09 01:53:27;;;;;;;2.53;1.10;;;;;;;;;;5066804;28;20057;-54
2022/09/09 01:55:59;;;;;;;3.40;1.35;;;;;;;;;;5067414;28;20060;-50
2022/09/09 01:58:32;;;;;;;4.55;2.17;;;;;;;;;;5053621;28;20381;-52
2022/09/09 02:01:03;;;;;;;6.43;1.25;;;;;;;;;;5053715;28;20053;-51
2022/09/09 02:03:30;;;;;;;2.80;1.05;;;;;;;;;;5053545;28;20682;-52
2022/09/09 02:06:01;;;;;;;7.00;1.40;;;;;;;;;;5052840;28;20064;-53
2022/09/09 02:08:31;;;;;;;2.85;1.27;;;;;;;;;;5053276;28;20053;-52
2022/09/09 02:11:01;;;;;;;5.07;1.13;;;;;;;;;;5059521;28;20044;-53
2022/09/09 02:13:28;;;;;;;2.70;1.08;;;;;;;;;;5073366;28;20053;-50
2022/09/09 02:15:57;;;;;;;1.88;1.00;;;;;;;;;;5073443;28;20053;-53
2022/09/09 02:18:26;;;;;;;2.97;1.00;;;;;;;;;;5073293;28;20044;-52
2022/09/09 02:20:53;;;;;;;2.92;1.30;;;;;;;;;;5073450;28;20048;-51
2022/09/09 02:23:20;;;;;;;4.32;1.30;;;;;;;;;;5073436;28;20063;-53
2022/09/09 02:25:46;;;;;;;2.63;1.17;;;;;;;;;;5073420;28;20055;-54
2022/09/09 02:28:14;;;;;;;5.85;1.55;;;;;;;;;;5073316;28;20052;-53
2022/09/09 02:30:40;;;;;;;5.72;1.30;;;;;;;;;;5073495;28;20097;-53
2022/09/09 02:33:07;;;;;;;4.00;1.20;;;;;;;;;;5073224;28;20052;-54
2022/09/09 02:35:37;;;;;;;5.63;1.50;;;;;;;;;;5073002;28;20432;-54
2022/09/09 02:38:04;;;;;;;4.25;1.25;;;;;;;;;;5073186;28;20052;-51
2022/09/09 02:40:30;;;;;;;2.42;1.25;;;;;;;;;;5073384;28;20060;-54
2022/09/09 02:42:57;;;;;;;8.52;1.42;;;;;;;;;;5073145;28;20044;-53
2022/09/09 02:45:25;;;;;;;4.03;1.48;;;;;;;;;;5073294;28;20044;-54
2022/09/09 02:47:56;;;;;;;4.80;1.50;;;;;;;;;;5073139;28;20098;-51
2022/09/09 02:50:25;;;;;;;4.95;1.13;;;;;;;;;;5073273;28;20045;-54
2022/09/09 02:52:58;;;;;;;3.55;1.48;;;;;;;;;;5073018;28;20063;-50
2022/09/09 02:55:28;;;;;;;3.88;1.17;;;;;;;;;;5070406;28;20508;-50
2022/09/09 02:57:56;;;;;;;4.82;1.40;;;;;;;;;;5052862;28;20119;-50
2022/09/09 03:00:25;;;;;;;4.55;1.13;;;;;;;;;;5053145;28;20048;-51
2022/09/09 03:02:52;;;;;;;2.60;1.40;;;;;;;;;;5053024;28;20053;-54
2022/09/09 03:05:18;;;;;;;4.40;1.55;;;;;;;;;;5052929;28;20083;-54
2022/09/09 03:07:44;;;;;;;2.75;1.40;;;;;;;;;;5063486;28;20060;-54
2022/09/09 03:10:12;;;;;;;3.72;1.33;;;;;;;;;;5072915;28;20068;-54
2022/09/09 03:12:38;;;;;;;2.92;1.40;;;;;;;;;;5072378;28;20073;-52
2022/09/09 03:15:05;;;;;;;5.40;1.63;;;;;;;;;;5072942;28;20048;-53
2022/09/09 03:17:31;;;;;;;8.43;1.88;;;;;;;;;;5073513;28;20053;-54
2022/09/09 03:19:58;;;;;;;2.63;1.83;;;;;;;;;;5076720;28;20064;-54
2022/09/09 03:22:25;;;;;;;9.88;2.53;;;;;;;;;;5076841;28;20049;-54
2022/09/09 03:24:51;;;;;;;5.50;2.08;;;;;;;;;;5076799;28;20044;-52
2022/09/09 03:27:19;;;;;;;7.35;2.22;;;;;;;;;;5076535;28;20060;-50
2022/09/09 03:29:45;;;;;;;5.60;2.20;;;;;;;;;;5076397;28;20044;-53
2022/09/09 03:32:12;;;;;;;7.85;2.63;;;;;;;;;;5076793;28;20080;-53
2022/09/09 03:34:40;;;;;;;6.68;2.00;;;;;;;;;;5076533;28;20143;-54
2022/09/09 03:37:06;;;;;;;7.78;2.35;;;;;;;;;;5076036;28;20428;-53
2022/09/09 03:39:32;;;;;;;5.97;2.30;;;;;;;;;;5076363;28;20086;-51
2022/09/09 03:41:59;;;;;;;5.20;2.45;;;;;;;;;;5076469;28;20052;-54
2022/09/09 03:44:26;;;;;;;7.70;2.85;;;;;;;;;;5075975;28;20068;-54
2022/09/09 03:46:53;;;;;;;6.53;2.22;;;;;;;;;;5076369;28;20091;-54
2022/09/09 03:49:20;;;;;;;10.27;2.20;;;;;;;;;;5076230;28;20049;-53
2022/09/09 03:51:46;;;;;;;4.30;2.72;;;;;;;;;;5076207;28;20048;-51
2022/09/09 03:54:12;;;;;;;5.35;2.55;;;;;;;;;;5075848;28;20048;-53
2022/09/09 03:56:39;;;;;;;7.28;2.97;;;;;;;;;;5063475;28;20432;-53
2022/09/09 03:59:08;;;;;;;9.07;2.85;;;;;;;;;;5055866;28;20052;-53
2022/09/09 04:01:36;;;;;;;10.02;2.83;;;;;;;;;;5056056;28;20059;-53
2022/09/09 04:04:02;;;;;;;8.07;2.65;;;;;;;;;;5066884;28;20064;-54
2022/09/09 04:06:29;;;;;;;6.30;2.75;;;;;;;;;;5076203;28;20091;-51
2022/09/09 04:08:56;;;;;;;6.57;2.70;;;;;;;;;;5075429;28;20397;-51
2022/09/09 04:11:22;;;;;;;7.53;3.20;;;;;;;;;;5075463;28;20060;-53
2022/09/09 04:13:49;;;;;;;6.20;2.53;;;;;;;;;;5075270;28;20518;-51
2022/09/09 04:16:15;;;;;;;4.18;1.88;;;;;;;;;;5075431;28;20473;-53
2022/09/09 04:18:43;;;;;;;4.55;2.20;;;;;;;;;;5075444;28;20496;-51
2022/09/09 04:21:11;;;;;;;5.03;2.10;;;;;;;;;;5075293;28;20059;-54
2022/09/09 04:23:37;;;;;;;9.02;2.67;;;;;;;;;;5075291;28;20056;-54
2022/09/09 04:26:03;;;;;;;8.57;2.53;;;;;;;;;;5075347;28;20045;-53
2022/09/09 04:28:31;;;;;;;5.13;2.85;;;;;;;;;;5074903;28;20067;-53
2022/09/09 04:30:57;;;;;;;5.63;2.15;;;;;;;;;;5074177;28;20048;-54
2022/09/09 04:33:25;;;;;;;7.22;2.60;;;;;;;;;;5075265;28;20072;-53
2022/09/09 04:35:55;;;;;;;3.90;1.88;;;;;;;;;;5074894;28;20060;-54
2022/09/09 04:38:23;;;;;;;6.65;2.85;;;;;;;;;;5074722;28;20052;-53
2022/09/09 04:40:51;;;;;;;4.60;2.33;;;;;;;;;;5075211;28;20057;-52
2022/09/09 04:43:17;;;;;;;7.63;3.17;;;;;;;;;;5075215;28;20059;-54
2022/09/09 04:45:44;;;;;;;6.63;2.65;;;;;;;;;;5075004;28;20044;-50
2022/09/09 04:48:11;;;;;;;7.03;2.63;;;;;;;;;;5075158;28;20052;-50
2022/09/09 04:50:37;;;;;;;5.28;2.50;;;;;;;;;;5074977;28;20057;-50
2022/09/09 04:53:06;;;;;;;5.07;2.40;;;;;;;;;;5074535;28;20911;-54
2022/09/09 04:55:33;;;;;;;6.88;3.17;;;;;;;;;;5071318;28;20052;-54
2022/09/09 04:58:03;;;;;;;9.73;2.42;;;;;;;;;;5054724;28;20049;-53
2022/09/09 05:00:29;;;;;;;8.73;2.45;;;;;;;;;;5067287;28;20079;-53
2022/09/09 05:02:56;;;;;;;4.53;2.15;;;;;;;;;;5074566;28;20067;-52
2022/09/09 05:05:22;;;;;;;4.80;2.28;;;;;;;;;;5074493;28;20519;-53
2022/09/09 05:07:49;;;;;;;7.57;1.98;;;;;;;;;;5074799;28;20045;-53
2022/09/09 05:10:17;;;;;;;9.73;2.17;;;;;;;;;;5074765;28;20044;-50
2022/09/09 05:12:44;;;;;;;6.78;2.63;;;;;;;;;;5074094;28;20155;-51
2022/09/09 05:15:11;;;;;;;4.55;2.25;;;;;;;;;;5074198;28;20059;-53
2022/09/09 05:17:37;;;;;;;5.68;1.80;;;;;;;;;;5074297;28;20131;-53
2022/09/09 05:20:04;;;;;;;4.47;2.42;;;;;;;;;;5074694;28;20063;-50
2022/09/09 05:22:31;;;;;;;6.15;2.08;;;;;;;;;;5074550;28;20154;-53
2022/09/09 05:24:58;;;;;;;5.90;2.15;;;;;;;;;;5074304;28;20117;-53
2022/09/09 05:27:25;;;;;;;5.15;1.40;;;;;;;;;;5074564;28;20048;-51
2022/09/09 05:29:52;;;;;;;5.28;2.05;;;;;;;;;;5074091;28;20429;-52
2022/09/09 05:32:18;;;;;;;5.93;2.20;;;;;;;;;;5074157;28;20052;-52
2022/09/09 05:34:44;;;;;;;4.53;2.38;;;;;;;;;;5074072;28;20048;-54
2022/09/09 05:37:10;;;;;;;6.65;2.63;;;;;;;;;;5074183;28;20048;-51
2022/09/09 05:39:37;;;;;;;4.82;1.95;;;;;;;;;;5074178;28;20052;-51
2022/09/09 05:42:04;;;;;;;6.30;2.17;;;;;;;;;;5073972;28;20106;-50
2022/09/09 05:44:32;;;;;;;3.80;2.15;;;;;;;;;;5074140;28;20127;-51
2022/09/09 05:46:58;;;;;;;8.27;2.70;;;;;;;;;;5073691;28;20423;-54
2022/09/09 05:49:24;;;;;;;3.25;1.85;;;;;;;;;;5074065;28;20076;-50
2022/09/09 05:51:51;;;;;;;9.35;2.60;;;;;;;;;;5073947;28;20110;-53
2022/09/09 05:54:17;;;;;;;4.97;2.00;;;;;;;;;;5073846;28;20438;-50
2022/09/09 05:56:44;;;;;;;5.50;2.25;;;;;;;;;;5073232;28;20102;-52
2022/09/09 05:59:11;;;;;;;2.72;1.58;;;;;;;;;;5073666;28;20083;-52
2022/09/09 06:01:40;;;;;;;5.28;2.78;;;;;;;;;;5073653;28;20079;-51
2022/09/09 06:04:06;;;;;;;5.55;1.90;;;;;;;;;;5064163;28;20051;-50
2022/09/09 06:06:36;;;;;;;3.22;2.00;;;;;;;;;;5064482;28;20052;-49
2022/09/09 06:09:06;;;;;;;4.43;1.90;;;;;;;;;;5062122;28;20163;-52
2022/09/09 06:11:32;;;;;;;2.50;1.33;;;;;;;;;;5071205;28;20147;-50
2022/09/09 06:13:59;;;;;;;3.45;1.98;;;;;;;;;;5072894;28;20135;-51
2022/09/09 06:16:26;;;;;;;3.95;1.88;;;;;;;;;;5072600;28;20044;-48
2022/09/09 06:18:56;;;;;;;4.78;1.70;;;;;;;;;;5056745;28;20464;-49
2022/09/09 06:21:23;;;;;;;5.72;2.13;;;;;;;;;;5072870;28;20048;-50
2022/09/09 06:23:51;;;;;;;2.85;1.75;;;;;;;;;;5073084;28;20060;-50
2022/09/09 06:26:18;;;;;;;4.22;1.83;;;;;;;;;;5071813;28;20101;-49
2022/09/09 06:28:45;;;;;;;4.05;2.10;;;;;;;;;;5072808;28;20072;-49
2022/09/09 06:31:12;;;;;;;3.58;2.00;;;;;;;;;;5072730;28;20131;-50
2022/09/09 06:33:40;;;;;;;3.47;1.70;;;;;;;;;;5072513;28;20064;-49
2022/09/09 06:36:11;;;;;;;2.90;1.60;;;;;;;;;;5072108;28;20493;-52
2022/09/09 06:38:37;;;;;;;4.80;1.55;;;;;;;;;;5072991;28;20080;-51
2022/09/09 06:41:05;;;;;;;3.20;1.55;;;;;;;;;;5072603;28;20052;-50
2022/09/09 06:43:32;;;;;;;5.53;1.60;;;;;;;;;;5072519;28;20131;-49
2022/09/09 06:45:59;;;;;;;5.25;2.05;;;;;;;;;;5072569;28;20055;-49
2022/09/09 06:48:27;;;;;;;4.25;1.90;;;;;;;;;;5072765;28;20060;-50
2022/09/09 06:51:01;;;;;;;4.25;1.85;;;;;;;;;;5056301;28;20041;-50
2022/09/09 06:53:28;;;;;;;7.30;1.67;;;;;;;;;;5074450;28;20077;-49
2022/09/09 06:55:55;;;;;;;6.05;2.13;;;;;;;;;;5069755;28;20060;-50
2022/09/09 06:58:21;;;;;;;3.78;1.70;;;;;;;;;;5072524;28;20139;-50
2022/09/09 07:00:48;;;;;;;7.72;2.10;;;;;;;;;;5076095;28;20609;-51
2022/09/09 07:03:14;;;;;;;4.30;1.70;;;;;;;;;;5076343;28;20036;-53
2022/09/09 07:05:40;;;;;;;3.50;1.80;;;;;;;;;;5076660;28;20056;-54
2022/09/09 07:08:07;;;;;;;3.83;1.50;;;;;;;;;;5073051;28;20549;-52
2022/09/09 07:10:35;;;;;;;4.45;1.67;;;;;;;;;;5073556;28;20080;-51
2022/09/09 07:13:02;;;;;;;2.72;1.63;;;;;;;;;;5075929;28;20114;-52
2022/09/09 07:15:28;;;;;;;2.58;1.40;;;;;;;;;;5076136;28;20071;-51
2022/09/09 07:17:54;;;;;;;3.80;1.75;;;;;;;;;;5075620;28;20060;-50
2022/09/09 07:20:21;;;;;;;4.82;1.75;;;;;;;;;;5076015;28;20084;-50
2022/09/09 07:22:47;;;;;;;7.53;2.25;;;;;;;;;;5075944;28;20076;-50
2022/09/09 07:25:14;;;;;;;4.07;1.95;;;;;;;;;;5076006;28;20048;-49
2022/09/09 07:27:41;;;;;;;3.15;1.70;;;;;;;;;;5075820;28;20063;-51
2022/09/09 07:30:08;;;;;;;5.07;1.60;;;;;;;;;;5075801;28;20056;-53
2022/09/09 07:32:34;;;;;;;4.93;1.80;;;;;;;;;;5075930;28;20052;-50
2022/09/09 07:35:01;;;;;;;4.88;1.70;;;;;;;;;;5074990;28;20483;-49
2022/09/09 07:37:27;;;;;;;4.60;1.80;;;;;;;;;;5074596;28;20044;-50
2022/09/09 07:39:53;;;;;;;3.72;1.65;;;;;;;;;;5073302;28;20045;-51
2022/09/09 07:42:20;;;;;;;3.03;1.63;;;;;;;;;;5075885;28;20060;-50
2022/09/09 07:44:47;;;;;;;3.28;1.60;;;;;;;;;;5075469;28;20136;-52
2022/09/09 07:47:14;;;;;;;5.32;1.50;;;;;;;;;;5075093;28;20056;-51
2022/09/09 07:49:40;;;;;;;7.07;2.10;;;;;;;;;;5074595;28;20060;-50
2022/09/09 07:52:07;;;;;;;4.30;1.80;;;;;;;;;;5075186;28;20548;-52
2022/09/09 07:54:33;;;;;;;5.18;1.98;;;;;;;;;;5075582;28;20059;-50
2022/09/09 07:56:59;;;;;;;10.57;2.40;;;;;;;;;;5064758;28;20051;-54
2022/09/09 07:59:26;;;;;;;4.22;1.60;;;;;;;;;;5075734;28;20060;-51
2022/09/09 08:01:54;;;;;;;5.05;1.70;;;;;;;;;;5075328;28;20091;-49
2022/09/09 08:04:21;;;;;;;5.20;2.15;;;;;;;;;;5074793;28;20121;-49
2022/09/09 08:06:49;;;;;;;3.65;1.88;;;;;;;;;;5074797;28;20688;-50
2022/09/09 08:09:16;;;;;;;2.92;1.50;;;;;;;;;;5069385;28;20071;-49
2022/09/09 08:11:42;;;;;;;3.45;1.80;;;;;;;;;;5074899;28;20064;-50
2022/09/09 08:14:09;;;;;;;4.05;1.77;;;;;;;;;;5074941;28;20048;-50
2022/09/09 08:16:37;;;;;;;3.13;1.52;;;;;;;;;;5074674;28;20059;-49
2022/09/09 08:19:07;;;;;;;4.05;1.77;;;;;;;;;;5074570;28;20048;-49
2022/09/09 08:21:33;;;;;;;3.78;1.80;;;;;;;;;;5074500;28;20055;-49
2022/09/09 08:24:01;;;;;;;2.92;1.70;;;;;;;;;;5074782;28;20060;-48
2022/09/09 08:26:28;;;;;;;4.90;2.05;;;;;;;;;;5073853;28;20059;-48
2022/09/09 08:28:56;;;;;;;3.92;1.55;;;;;;;;;;5074975;28;20056;-50
2022/09/09 08:31:23;;;;;;;2.10;1.35;;;;;;;;;;5074736;28;20045;-49
2022/09/09 08:33:49;;;;;;;4.55;2.20;;;;;;;;;;5074779;28;20045;-49
2022/09/09 08:36:20;;;;;;;4.35;1.70;;;;;;;;;;5074648;28;20062;-50
2022/09/09 08:38:48;;;;;;;4.32;1.48;;;;;;;;;;5074882;28;20059;-49
2022/09/09 08:41:30;;;;;;;2.85;1.45;;;;;;;;;;5074930;28;20059;-49
2022/09/09 08:44:00;;;;;;;5.40;1.95;;;;;;;;;;5070983;28;20041;-50
2022/09/09 08:46:33;;;;;;;4.60;1.70;;;;;;;;;;5061678;28;20044;-50
2022/09/09 08:49:02;;;;;;;3.85;1.70;;;;;;;;;;5062759;28;20045;-50
2022/09/09 08:51:33;;;;;;;3.05;1.70;;;;;;;;;;5072412;28;20056;-50
2022/09/09 08:54:01;;;;;;;3.60;2.03;;;;;;;;;;5071900;28;20151;-50
2022/09/09 08:56:28;;;;;;;5.07;1.83;;;;;;;;;;5074756;28;20098;-49
2022/09/09 08:58:55;;;;;;;3.58;2.05;;;;;;;;;;5074224;28;20066;-49
2022/09/09 09:01:39;;;;;;;3.60;1.63;;;;;;;;;;5074442;28;20052;-49
2022/09/09 09:04:08;;;;;;;3.13;1.23;;;;;;;;;;5074281;28;20048;-49
2022/09/09 09:06:43;;;;;;;4.13;1.77;;;;;;;;;;5074361;28;20135;-49
2022/09/09 09:09:13;;;;;;;3.70;2.15;;;;;;;;;;5074489;28;20048;-49
2022/09/09 09:11:42;;;;;;;3.05;1.70;;;;;;;;;;5064000;28;20608;-49
2022/09/09 09:14:10;;;;;;;4.32;2.03;;;;;;;;;;5069865;28;20048;-50
2022/09/09 09:16:39;;;;;;;3.60;1.70;;;;;;;;;;5074109;28;20080;-48
2022/09/09 09:19:09;;;;;;;4.22;1.80;;;;;;;;;;5061160;28;20555;-49
2022/09/09 09:21:43;;;;;;;3.65;2.33;;;;;;;;;;5067673;28;20056;-48
2022/09/09 09:24:17;;;;;;;3.30;2.17;;;;;;;;;;5074380;28;20067;-50
2022/09/09 09:26:43;;;;;;;3.67;2.00;;;;;;;;;;5073805;28;20067;-50
2022/09/09 09:29:11;;;;;;;4.57;1.85;;;;;;;;;;5074446;28;20041;-50
2022/09/09 09:31:38;;;;;;;5.68;2.20;;;;;;;;;;5073907;28;20076;-49
2022/09/09 09:34:04;;;;;;;4.93;1.90;;;;;;;;;;5074125;28;20142;-50
2022/09/09 09:36:35;;;;;;;3.08;1.85;;;;;;;;;;5073830;28;20071;-50
2022/09/09 09:39:05;;;;;;;4.28;1.92;;;;;;;;;;5073821;28;20456;-50
2022/09/09 09:41:32;;;;;;;3.30;2.20;;;;;;;;;;5066238;28;20131;-51
2022/09/09 09:43:59;;;;;;;6.93;2.45;;;;;;;;;;5072774;28;20400;-53
2022/09/09 09:46:26;;;;;;;2.92;1.83;;;;;;;;;;5073697;28;20052;-51
2022/09/09 09:48:59;;;;;;;4.88;2.42;;;;;;;;;;5060483;28;20381;-51
2022/09/09 09:51:26;;;;;;;5.30;3.20;;;;;;;;;;5069305;28;20086;-51
2022/09/09 09:53:54;;;;;;;5.20;2.47;;;;;;;;;;5069414;28;20461;-50
2022/09/09 09:56:29;;;;;;;4.97;2.47;;;;;;;;;;5073280;28;20053;-52
2022/09/09 09:58:56;;;;;;;3.65;2.13;;;;;;;;;;5057150;28;20076;-51
2022/09/09 10:01:24;;;;;;;4.10;2.20;;;;;;;;;;5072590;28;20771;-52
2022/09/09 10:03:51;;;;;;;10.93;2.72;;;;;;;;;;5072888;28;20080;-51
2022/09/09 10:06:18;;;;;;;4.40;2.33;;;;;;;;;;5072997;28;20048;-50
2022/09/09 10:08:46;;;;;;;4.82;2.47;;;;;;;;;;5072980;28;20049;-51
2022/09/09 10:11:26;;;;;;;5.10;2.55;;;;;;;;;;5072285;28;20499;-50
2022/09/09 10:14:02;;;;;;;5.95;2.22;;;;;;;;;;5073122;28;20135;-52
2022/09/09 10:16:36;;;;;;;3.53;2.25;;;;;;;;;;5072978;28;20060;-51
2022/09/09 10:19:04;;;;;;;7.38;2.85;;;;;;;;;;5073107;28;20055;-49
2022/09/09 10:21:45;;;;;;;3.05;2.22;;;;;;;;;;5066954;28;20063;-50
2022/09/09 10:24:17;;;;;;;5.47;2.92;;;;;;;;;;5070353;28;20056;-50
2022/09/09 10:26:46;;;;;;;4.63;2.67;;;;;;;;;;5060826;28;20059;-50
2022/09/09 10:29:26;;;;;;;5.82;2.78;;;;;;;;;;5072871;28;20098;-50
2022/09/09 10:31:57;;;;;;;4.55;2.75;;;;;;;;;;5072974;28;20056;-52
2022/09/09 10:34:31;;;;;;;3.92;2.70;;;;;;;;;;5072886;28;20075;-52
2022/09/09 10:36:58;;;;;;;6.45;2.95;;;;;;;;;;5057013;28;20076;-51
2022/09/09 10:39:32;;;;;;;6.22;3.03;;;;;;;;;;5072524;28;20449;-52
2022/09/09 10:42:02;;;;;;;5.72;2.95;;;;;;;;;;5072913;28;20056;-50
2022/09/09 10:44:35;;;;;;;6.78;3.30;;;;;;;;;;5072418;28;20063;-51
2022/09/09 10:47:19;;;;;;;4.75;3.13;;;;;;;;;;5072570;28;20063;-52
2022/09/09 10:49:57;;;;;;;3.88;2.38;;;;;;;;;;5065083;28;20147;-51
2022/09/09 10:52:28;;;;;;;5.28;3.08;;;;;;;;;;5072553;28;20135;-54
2022/09/09 10:54:57;;;;;;;5.28;2.92;;;;;;;;;;5070742;28;20068;-52
2022/09/09 10:57:28;;;;;;;4.32;3.42;;;;;;;;;;5072558;28;20143;-50
2022/09/09 10:59:59;;;;;;;4.85;2.72;;;;;;;;;;5072345;28;20361;-52
2022/09/09 11:02:27;;;;;;;5.95;3.05;;;;;;;;;;5072754;28;20056;-54
2022/09/09 11:04:56;;;;;;;6.22;3.20;;;;;;;;;;5072735;28;20654;-52
2022/09/09 11:07:26;;;;;;;5.45;3.25;;;;;;;;;;5072647;28;20101;-52
2022/09/09 11:09:55;;;;;;;5.93;3.25;;;;;;;;;;5072159;28;20049;-51
2022/09/09 11:12:23;;;;;;;6.20;2.70;;;;;;;;;;5072186;28;20543;-49
2022/09/09 11:14:51;;;;;;;6.10;3.45;;;;;;;;;;5070901;28;20377;-50
2022/09/09 11:17:20;;;;;;;6.53;3.42;;;;;;;;;;5072164;28;20587;-50
2022/09/09 11:19:47;;;;;;;6.90;3.72;;;;;;;;;;5071672;28;20052;-50
2022/09/09 11:22:19;;;;;;;7.28;3.50;;;;;;;;;;5072252;28;20049;-51
2022/09/09 11:24:47;;;;;;;5.30;3.35;;;;;;;;;;5071452;28;20364;-52
2022/09/09 11:27:16;;;;;;;5.07;3.03;;;;;;;;;;5072428;28;20053;-50
2022/09/09 11:30:00;;;;;;;4.78;2.95;;;;;;;;;;5072191;28;20055;-50
2022/09/09 11:32:43;;;;;;;4.20;2.60;;;;;;;;;;5072286;28;20056;-50
2022/09/09 11:35:20;;;;;;;5.82;3.28;;;;;;;;;;5062639;28;20060;-49
2022/09/09 11:37:59;;;;;;;5.65;3.30;;;;;;;;;;5071771;28;20048;-50
2022/09/09 11:40:26;;;;;;;5.38;3.60;;;;;;;;;;5075506;28;20063;-50
2022/09/09 11:43:03;;;;;;;6.07;3.55;;;;;;;;;;5059293;28;20044;-52
2022/09/09 11:45:30;;;;;;;6.72;4.03;;;;;;;;;;5075352;28;20114;-49
2022/09/09 11:47:58;;;;;;;5.47;3.22;;;;;;;;;;5075451;28;20055;-52
2022/09/09 11:50:30;;;;;;;5.25;3.42;;;;;;;;;;5071804;28;20622;-50
2022/09/09 11:53:04;;;;;;;6.28;3.42;;;;;;;;;;5071592;28;20048;-51
2022/09/09 11:55:32;;;;;;;5.97;3.15;;;;;;;;;;5075141;28;20335;-49
2022/09/09 11:57:59;;;;;;;5.45;3.30;;;;;;;;;;5075241;28;20051;-49
2022/09/09 12:00:33;;;;;;;7.32;3.25;;;;;;;;;;5075075;28;20064;-49
2022/09/09 12:03:01;;;;;;;5.07;3.20;;;;;;;;;;5072720;28;20190;-50
2022/09/09 12:05:37;;;;;;;7.25;3.25;;;;;;;;;;5073747;28;20052;-49
2022/09/09 12:08:04;;;;;;;6.07;4.18;;;;;;;;;;5075131;28;20099;-49
2022/09/09 12:10:33;;;;;;;5.50;3.80;;;;;;;;;;5075367;28;20055;-49
2022/09/09 12:13:09;;;;;;;7.72;3.72;;;;;;;;;;5075029;28;20437;-52
2022/09/09 12:15:35;;;;;;;;;;;;;;;;;;5075769;28;20064;-50
2022/09/09 12:18:03;;;;;;;5.15;3.50;;;;;;;;;;5074875;28;19956;-49
2022/09/09 12:20:32;;;;;;;6.25;3.92;;;;;;;;;;5074584;28;20568;-49
2022/09/09 12:23:06;;;;;;;8.63;4.20;;;;;;;;;;5074489;28;20149;-50
2022/09/09 12:25:37;;;;;;;5.75;3.60;;;;;;;;;;5064512;28;20059;-49
2022/09/09 12:28:06;;;;;;;4.55;3.38;;;;;;;;;;5075101;28;20048;-50
2022/09/09 12:30:35;;;;;;;5.72;3.70;;;;;;;;;;5074621;28;20055;-51
2022/09/09 12:33:09;;;;;;;6.63;3.80;;;;;;;;;;5074681;28;20075;-53
2022/09/09 12:35:38;;;;;;;7.20;3.95;;;;;;;;;;5075017;28;20055;-50
2022/09/09 12:38:06;;;;;;;6.70;3.97;;;;;;;;;;5073348;28;20515;-50
2022/09/09 12:40:35;;;;;;;7.85;4.32;;;;;;;;;;5068696;28;20059;-49
2022/09/09 12:43:01;;;;;;;7.30;4.28;;;;;;;;;;5074886;28;20052;-51
2022/09/09 12:45:30;;;;;;;7.75;3.90;;;;;;;;;;5074776;28;20048;-50
2022/09/09 12:47:58;;;;;;;4.93;3.35;;;;;;;;;;5072844;28;20068;-50
2022/09/09 12:50:27;;;;;;;6.47;3.50;;;;;;;;;;5070025;28;20057;-50
2022/09/09 12:52:54;;;;;;;4.82;3.00;;;;;;;;;;5062097;28;20140;-50
2022/09/09 12:55:24;;;;;;;6.07;3.92;;;;;;;;;;5074393;28;20052;-51
2022/09/09 12:57:52;;;;;;;6.10;3.80;;;;;;;;;;5074524;28;20052;-50
2022/09/09 13:00:20;;;;;;;8.88;4.43;;;;;;;;;;5073812;28;20136;-50
2022/09/09 13:02:47;;;;;;;6.05;4.10;;;;;;;;;;5074121;28;20056;-52
2022/09/09 13:05:16;;;;;;;7.35;4.38;;;;;;;;;;5073836;28;20049;-52
2022/09/09 13:07:43;;;;;;;8.02;4.30;;;;;;;;;;5074184;28;20131;-49
2022/09/09 13:10:11;;;;;;;5.57;3.90;;;;;;;;;;5073994;28;20063;-48
2022/09/09 13:12:38;;;;;;;6.65;4.72;;;;;;;;;;5073638;28;20056;-48
2022/09/09 13:15:04;;;;;;;6.32;4.15;;;;;;;;;;5074032;28;20135;-49
2022/09/09 13:17:31;;;;;;;8.27;4.35;;;;;;;;;;5065155;28;20056;-49
2022/09/09 13:19:57;;;;;;;8.88;4.40;;;;;;;;;;5066418;28;20102;-51
2022/09/09 13:22:29;;;;;;;8.55;5.35;;;;;;;;;;5057748;28;20120;-50
2022/09/09 13:25:04;;;;;;;8.80;5.25;;;;;;;;;;5057951;28;20055;-52
2022/09/09 13:27:31;;;;;;;8.07;4.53;;;;;;;;;;5065137;28;20068;-51
2022/09/09 13:29:57;;;;;;;9.05;5.03;;;;;;;;;;5068132;28;20143;-53
2022/09/09 13:32:24;;;;;;;8.23;4.78;;;;;;;;;;5057495;28;20052;-51
2022/09/09 13:34:52;;;;;;;6.53;4.30;;;;;;;;;;5070167;28;20428;-53
2022/09/09 13:37:21;;;;;;;7.57;3.95;;;;;;;;;;5052541;28;20045;-51
2022/09/09 13:39:52;;;;;;;6.55;4.07;;;;;;;;;;5064812;28;20593;-51
2022/09/09 13:42:25;;;;;;;8.73;5.70;;;;;;;;;;5057937;28;20057;-50
2022/09/09 13:44:51;;;;;;;7.55;4.85;;;;;;;;;;5053268;28;20069;-50
2022/09/09 13:47:19;;;;;;;5.75;3.75;;;;;;;;;;5053515;28;20114;-50
2022/09/09 13:49:46;;;;;;;5.70;4.20;;;;;;;;;;5056655;28;20544;-52
2022/09/09 13:52:14;;;;;;;8.02;4.70;;;;;;;;;;5060127;28;20045;-50
2022/09/09 13:54:40;;;;;;;8.93;5.53;;;;;;;;;;5068884;28;20102;-53
2022/09/09 13:57:07;;;;;;;11.05;6.47;;;;;;;;;;5053096;28;20059;-50
2022/09/09 13:59:34;;;;;;;6.72;4.00;;;;;;;;;;5064445;28;20268;-49
2022/09/09 14:02:01;;;;;;;11.30;5.30;;;;;;;;;;5060129;28;20048;-50
2022/09/09 14:04:27;;;;;;;5.65;4.20;;;;;;;;;;5069013;28;20527;-53
2022/09/09 14:06:54;;;;;;;8.88;4.88;;;;;;;;;;5057413;28;20059;-52
2022/09/09 14:09:20;;;;;;;11.23;5.55;;;;;;;;;;5065614;28;20056;-49
2022/09/09 14:11:47;;;;;;;8.23;4.78;;;;;;;;;;5063514;28;20465;-52
2022/09/09 14:14:13;;;;;;;8.65;4.85;;;;;;;;;;5058256;28;20052;-54
2022/09/09 14:16:40;;;;;;;8.93;4.97;;;;;;;;;;5069438;28;20063;-51
2022/09/09 14:19:08;;;;;;;8.20;4.90;;;;;;;;;;5056801;28;20040;-52
2022/09/09 14:21:34;;;;;;;9.48;5.28;;;;;;;;;;5063601;28;20049;-52
2022/09/09 14:24:01;;;;;;;8.05;5.13;;;;;;;;;;5063742;28;20072;-50
2022/09/09 14:26:28;;;;;;;8.57;5.78;;;;;;;;;;5069581;28;20052;-52
2022/09/09 14:28:55;;;;;;;10.05;6.47;;;;;;;;;;5063958;28;20061;-50
2022/09/09 14:31:21;;;;;;;8.95;5.63;;;;;;;;;;5065801;28;20632;-51
2022/09/09 14:33:50;;;;;;;9.48;5.60;;;;;;;;;;5057177;28;20053;-49
2022/09/09 14:36:16;;;;;;;9.75;5.93;;;;;;;;;;5058034;28;20063;-50
2022/09/09 14:38:43;;;;;;;10.35;5.93;;;;;;;;;;5055605;28;20701;-51
2022/09/09 14:41:10;;;;;;;12.77;6.93;;;;;;;;;;5073103;28;20052;-54
2022/09/09 14:43:36;;;;;;;12.00;6.20;;;;;;;;;;5069552;28;20059;-53
2022/09/09 14:46:06;;;;;;;12.43;6.10;;;;;;;;;;5064947;28;20478;-53
2022/09/09 14:48:33;;;;;;;7.68;5.32;;;;;;;;;;5063161;28;20080;-54
2022/09/09 14:51:06;;;;;;;11.50;6.47;;;;;;;;;;5067629;28;20068;-54